Saturday, October 25, 2014, 7:53 AM EDT

KJYO, Leesburg / Godfrey

Location: Leesburg, VA, United States Lat: 39.083
Local Time: 7:53 AM EDT (11:53 GMT) Lon: -77.567
Time Zone: US/Eastern Elev: 390 ft

Show me the last for .
Show Decoded

2014-10-25 07:35 METAR KJYO 251135Z AUTO 30004KT 10SM CLR 10/05 A2996 RMK AO2 =
2014-10-25 07:15 METAR KJYO 251115Z AUTO 28004KT 10SM CLR 11/05 A2996 RMK AO2 =
2014-10-25 06:55 METAR KJYO 251055Z AUTO 28004KT 10SM CLR 11/06 A2996 RMK AO2 =
2014-10-25 06:35 METAR KJYO 251035Z AUTO 28005KT 10SM CLR 10/06 A2997 RMK AO2 =
2014-10-25 06:15 METAR KJYO 251015Z AUTO 00000KT 10SM CLR 11/06 A2997 RMK AO2 =
2014-10-25 05:55 METAR KJYO 250955Z AUTO 32008KT 10SM CLR 12/06 A2997 RMK AO2 =
2014-10-25 05:35 METAR KJYO 250935Z AUTO 33006KT 10SM CLR 10/06 A2996 RMK AO2 =
2014-10-25 05:15 METAR KJYO 250915Z AUTO 00000KT 10SM CLR 11/06 A2996 RMK AO2 =
2014-10-25 04:55 METAR KJYO 250855Z AUTO 00000KT 10SM CLR 12/06 A2996 RMK AO2 =
2014-10-25 04:35 METAR KJYO 250835Z AUTO 28004KT 10SM CLR 11/06 A2997 RMK AO2 =
2014-10-25 03:55 METAR KJYO 250755Z AUTO 31006KT 10SM CLR 06/05 A2997 RMK AO2 =
2014-10-25 03:35 METAR KJYO 250735Z AUTO 29004KT 10SM CLR 06/05 A2998 RMK AO2 =
2014-10-25 03:15 METAR KJYO 250715Z AUTO 00000KT 10SM CLR 07/05 A2998 RMK AO2 =
2014-10-25 02:55 METAR KJYO 250655Z AUTO 00000KT 10SM CLR 06/05 A2998 RMK AO2 =
2014-10-25 02:35 METAR KJYO 250635Z AUTO 21003KT 10SM CLR 07/05 A2998 RMK AO2 =
2014-10-25 02:15 METAR KJYO 250615Z AUTO 00000KT 10SM CLR 07/05 A2998 RMK AO2 =
2014-10-25 01:55 METAR KJYO 250555Z AUTO 00000KT 10SM CLR 08/05 A2998 RMK AO2 =
2014-10-25 01:35 METAR KJYO 250535Z AUTO 00000KT 10SM CLR 07/05 A2998 RMK AO2 =
2014-10-25 01:15 METAR KJYO 250515Z AUTO 31003KT 10SM CLR 08/04 A2998 RMK AO2 =
2014-10-25 00:55 METAR KJYO 250455Z AUTO 00000KT 10SM CLR 09/05 A2998 RMK AO2 =
2014-10-25 00:35 METAR KJYO 250435Z AUTO 00000KT 10SM CLR 08/05 A2998 RMK AO2 =
2014-10-25 00:15 METAR KJYO 250415Z AUTO 30004KT 10SM CLR 10/05 A2998 RMK AO2 =
2014-10-24 23:55 METAR KJYO 250355Z AUTO 30005KT 10SM CLR 09/05 A2998 RMK AO2 =
2014-10-24 23:15 METAR KJYO 250315Z AUTO 31005KT 10SM CLR 11/05 A2998 RMK AO2 =
2014-10-24 22:35 METAR KJYO 250235Z AUTO 34009KT 10SM CLR 12/05 A2998 RMK AO2 =
2014-10-24 22:15 METAR KJYO 250215Z AUTO 34008KT 10SM CLR 13/05 A2998 RMK AO2 =
2014-10-24 21:55 METAR KJYO 250155Z AUTO 34006KT 10SM CLR 14/04 A2997 RMK AO2 =
2014-10-24 21:35 METAR KJYO 250135Z AUTO 35006KT 10SM CLR 14/03 A2997 RMK AO2 =
2014-10-24 21:15 METAR KJYO 250115Z AUTO 35006KT 10SM CLR 15/03 A2997 RMK AO2 =
2014-10-24 20:55 METAR KJYO 250055Z AUTO 33005KT 10SM CLR 13/03 A2996 RMK AO2 =
2014-10-24 20:35 METAR KJYO 250035Z AUTO 00000KT 10SM CLR 14/03 A2996 RMK AO2 =
2014-10-24 20:15 METAR KJYO 250015Z AUTO 31008KT 10SM CLR 15/03 A2996 RMK AO2 =
2014-10-24 19:55 METAR KJYO 242355Z AUTO 32006KT 10SM CLR 15/03 A2996 RMK AO2 =
2014-10-24 19:35 METAR KJYO 242335Z AUTO 32009KT 10SM CLR 15/03 A2995 RMK AO2 =
2014-10-24 19:15 METAR KJYO 242315Z AUTO 32008KT 10SM CLR 15/02 A2995 RMK AO2 =
2014-10-24 18:55 METAR KJYO 242255Z AUTO 33007KT 10SM CLR 16/02 A2995 RMK AO2 =
2014-10-24 18:35 METAR KJYO 242235Z AUTO 31007KT 10SM CLR 16/02 A2994 RMK AO2 =
2014-10-24 18:15 METAR KJYO 242215Z AUTO 31009KT 10SM CLR 17/03 A2994 RMK AO2 =
2014-10-24 17:55 METAR KJYO 242155Z AUTO 30007KT 10SM CLR 17/06 A2993 RMK AO2 =
2014-10-24 17:35 METAR KJYO 242135Z AUTO 28005KT 10SM CLR 17/07 A2993 RMK AO2 =
2014-10-24 17:15 METAR KJYO 242115Z AUTO 26007KT 10SM CLR 17/07 A2993 RMK AO2 =
2014-10-24 16:55 METAR KJYO 242055Z AUTO 27006KT 10SM CLR 18/06 A2992 RMK AO2 =
2014-10-24 16:35 METAR KJYO 242035Z AUTO 30007KT 10SM CLR 19/06 A2992 RMK AO2 =
2014-10-24 16:15 METAR KJYO 242015Z AUTO 33008G14KT 10SM CLR 20/05 A2992 RMK AO2 =
2014-10-24 15:55 METAR KJYO 241955Z AUTO 33011G15KT 10SM CLR 20/06 A2992 RMK AO2 =
2014-10-24 15:35 METAR KJYO 241935Z AUTO 33010G14KT 10SM CLR 20/06 A2992 RMK AO2 =
2014-10-24 15:15 METAR KJYO 241915Z AUTO 31008KT 10SM CLR 19/06 A2993 RMK AO2 =
2014-10-24 14:55 METAR KJYO 241855Z AUTO 35010G17KT 10SM CLR 19/05 A2993 RMK AO2 =
2014-10-24 14:35 METAR KJYO 241835Z AUTO 32008KT 10SM CLR 19/05 A2993 RMK AO2 =
2014-10-24 14:15 METAR KJYO 241815Z AUTO 36012G18KT 10SM CLR 19/05 A2994 RMK AO2 =
2014-10-24 13:55 METAR KJYO 241755Z AUTO 33009KT 10SM CLR 18/06 A2994 RMK AO2 =
2014-10-24 13:35 METAR KJYO 241735Z AUTO 32013G21KT 10SM CLR 18/07 A2995 RMK AO2 =
2014-10-24 13:15 METAR KJYO 241715Z AUTO 34012G20KT 10SM CLR 17/06 A2996 RMK AO2 =
2014-10-24 12:55 METAR KJYO 241655Z AUTO 33016G20KT 10SM CLR 17/07 A2997 RMK AO2 =
2014-10-24 12:35 METAR KJYO 241635Z AUTO 32011G19KT 10SM CLR 16/07 A2998 RMK AO2 =
2014-10-24 12:15 METAR KJYO 241615Z AUTO 33013G19KT 10SM CLR 16/08 A2999 RMK AO2 =
2014-10-24 11:55 METAR KJYO 241555Z AUTO 33010G16KT 10SM CLR 16/08 A3000 RMK AO2 =
2014-10-24 11:35 METAR KJYO 241535Z AUTO 33010G18KT 10SM CLR 15/08 A3000 RMK AO2 =
2014-10-24 11:15 METAR KJYO 241515Z AUTO 33009KT 300V360 10SM CLR 15/08 A3001 RMK AO2 =
2014-10-24 10:55 METAR KJYO 241455Z AUTO 32013G17KT 10SM CLR 16/08 A3002 RMK AO2 =
2014-10-24 10:35 METAR KJYO 241435Z AUTO 34008G17KT 10SM CLR 14/08 A3002 RMK AO2 =
2014-10-24 10:15 METAR KJYO 241415Z AUTO 33012KT 10SM CLR 13/08 A3002 RMK AO2 =
2014-10-24 09:55 METAR KJYO 241355Z AUTO 32014G19KT 10SM CLR 13/08 A3002 RMK AO2 =
2014-10-24 09:35 METAR KJYO 241335Z AUTO 33013G19KT 310V010 10SM CLR 13/08 A3002 RMK AO2 =
2014-10-24 09:15 METAR KJYO 241315Z AUTO 33012G16KT 10SM CLR 13/08 A3002 RMK AO2 =
2014-10-24 08:55 METAR KJYO 241255Z AUTO 30010G18KT 280V340 10SM CLR 13/08 A3002 RMK AO2 =
2014-10-24 08:35 METAR KJYO 241235Z AUTO 32006G14KT 10SM CLR 12/08 A3001 RMK AO2 =
2014-10-24 08:15 METAR KJYO 241215Z AUTO 33011KT 10SM CLR 12/07 A3000 RMK AO2 =
2014-10-24 07:55 METAR KJYO 241155Z AUTO 32009G16KT 10SM CLR 11/07 A3000 RMK AO2 =

Support USWX by starting your Amazon purchase here.